Terminal Aerodrome Forecast
Issued by NWS Cheyenne, WY

Home | Current Version | Previous Version | Text Only | Print | Product List | Glossary On
Versions: 1 2 3 4 5 6 7 8 9 10 11 12 13 14 15
000
FTUS45 KCYS 300520
TAFCYS
TAF
KCYS 300520Z 3006/3106 26008KT P6SM SCT100
     FM301600 29013G25KT P6SM SCT100
     FM302000 27015G25KT P6SM VCTS BKN100CB
     FM310100 32014KT P6SM BKN100=

USA.gov is the U.S. government's official web portal to all federal, state and local government web resources and services.